Lawton-Fort Sill Regional Airport

Airport
ICAO code: 
KLAW
Summary
ICAO Region: 
NAM
Territory: 
Location: 
Lawton, Oklahoma,
Coordinates: 
Aerial View: 
34° 34' 23.325" N, 98° 24' 51.86" W
Metar
Observation
KLAW 040553Z AUTO 02011G20KT 10SM CLR 14/04 A3000 RMK AO2 SLP154 T01390044 10183 20139 402500033 51012
Station
Lawton, Lawton Municipal Airport
Date/Time
2021-12-04 05:53:00
Wind direction
20°
Wind speed
11 kts
Lowest cloud amount
n/a
Temperature
13.9°C
Dew point
4.4°C
Humidity
52%
Weather condition
n/a

Description

Lawton–Fort Sill Regional Airport is a public use airport located 4 km south of the central business district of Lawton, a city in Comanche County, Oklahoma.

Climatology

Dry “subtropical” climate (Köppen climate classification Cfa) - characterized by hot summers and cool, occasionally cold winters. Winter rainfall (and sometimes snowfall) is associated with large storms that the westerlies steer from west to east. Most summer rainfall occurs during thunderstorms.

Runways

Designator Length Width Surface Rops
17/35 2621 46 CON Yes/Yes
Airport map: 
Aerial View: 

SKYbrary Partners:

Safety knowledge contributed by: